Edgemont, SD (57735)

1:34 AM MDT on August 29, 2016 (GMT -0600)
Edgemont F St. | | Change Station

Elev 3488 ft 43.30 °N, 103.83 °W | Updated 14 minutes ago

Clear
Clear
57.4 °F
Feels Like 57.4 °F
N
0.0
Wind Variable Wind from SSE

Today
High -- | Low -- °F
--% Chance of Precip.
Yesterday
High -- | Low -- °F
Precip. -- in
Pressure 30.04 in
Visibility 10.0 miles
Clouds Clear
Dew Point 47 °F
Humidity 69%
Rainfall 0.00 in
Snow Depth Not available.
6:16 AM 7:34 PM
Waning Crescent, 10% visible
METAR KCUT 290653Z AUTO 30004KT 10SM CLR 15/04 A3026 RMK AO2 SLP173 T01500039 402890094
Pressure 30.04 in
Visibility 10.0 miles
Clouds Clear
Dew Point 47 °F
Humidity 69%
Rainfall 0.00 in
Snow Depth Not available.
6:16 AM 7:34 PM
Waning Crescent, 10% visible
METAR KCUT 290653Z AUTO 30004KT 10SM CLR 15/04 A3026 RMK AO2 SLP173 T01500039 402890094

10-Day Weather Forecast

Almanac

Astronomy

Aug. 29, 2016 Rise Set
Actual Time
Civil Twilight
Nautical Twilight
Astronomical Twilight
Moon
Length of Visible Light
Length of Day
Tomorrow will be .
, % of the Moon is Illuminated

Today's Extremes

State Highs State Lows

Community

WunderPhotos

Upload Photos

1,935,800 photos uploaded!

WunderBlog® & News

Nearby

Air Quality

  Air Quality AQ Index Pollutant
Not available.

Snow Depth

Station Depth Elevation

Earthquake Activity

City Distance Mag. Time & Date
Minimum magnitude displayed is 2.5.

Coastal Water Temperatures

Place Temperature

Stations

Nearby Weather Stations

Station Location Temp. Windchill Dew Point Humidity Wind Precip. Elev Updated Type
                   

Watches & Warnings

There are currently no watches in effect.